sensor_id;sensor_type;location;lat;lon;timestamp;P1;durP1;ratioP1;P2;durP2;ratioP2
49153;SDS011;49455;52.252;9.124;2023-04-23T00:01:07;5.33;;;3.27;;
49153;SDS011;49455;52.252;9.124;2023-04-23T00:06:08;5.87;;;3.93;;
49153;SDS011;49455;52.252;9.124;2023-04-23T00:11:09;7.63;;;4.73;;
49153;SDS011;49455;52.252;9.124;2023-04-23T00:16:10;10.57;;;6.35;;
49153;SDS011;49455;52.252;9.124;2023-04-23T00:21:11;10.53;;;6.50;;
49153;SDS011;49455;52.252;9.124;2023-04-23T00:26:11;12.70;;;6.53;;
49153;SDS011;49455;52.252;9.124;2023-04-23T00:31:12;10.97;;;6.43;;
49153;SDS011;49455;52.252;9.124;2023-04-23T00:36:13;13.03;;;6.80;;
49153;SDS011;49455;52.252;9.124;2023-04-23T00:41:13;12.43;;;7.55;;
49153;SDS011;49455;52.252;9.124;2023-04-23T00:46:14;11.60;;;7.30;;
49153;SDS011;49455;52.252;9.124;2023-04-23T00:51:15;12.85;;;7.53;;
49153;SDS011;49455;52.252;9.124;2023-04-23T00:56:16;19.33;;;10.07;;
49153;SDS011;49455;52.252;9.124;2023-04-23T01:01:17;23.02;;;11.00;;
49153;SDS011;49455;52.252;9.124;2023-04-23T01:06:19;27.02;;;12.98;;
49153;SDS011;49455;52.252;9.124;2023-04-23T01:11:20;28.25;;;13.13;;
49153;SDS011;49455;52.252;9.124;2023-04-23T01:16:20;26.05;;;12.23;;
49153;SDS011;49455;52.252;9.124;2023-04-23T01:21:20;29.10;;;13.70;;
49153;SDS011;49455;52.252;9.124;2023-04-23T01:26:22;25.13;;;12.07;;
49153;SDS011;49455;52.252;9.124;2023-04-23T01:31:23;27.92;;;12.82;;
49153;SDS011;49455;52.252;9.124;2023-04-23T01:36:24;26.45;;;13.00;;
49153;SDS011;49455;52.252;9.124;2023-04-23T01:41:25;27.15;;;13.23;;
49153;SDS011;49455;52.252;9.124;2023-04-23T01:46:25;26.05;;;12.10;;
49153;SDS011;49455;52.252;9.124;2023-04-23T01:51:28;31.25;;;14.25;;
49153;SDS011;49455;52.252;9.124;2023-04-23T01:56:29;32.50;;;14.30;;
49153;SDS011;49455;52.252;9.124;2023-04-23T02:01:40;31.67;;;13.93;;
49153;SDS011;49455;52.252;9.124;2023-04-23T02:06:43;29.88;;;13.73;;
49153;SDS011;49455;52.252;9.124;2023-04-23T02:11:47;32.22;;;14.00;;
49153;SDS011;49455;52.252;9.124;2023-04-23T02:16:47;27.15;;;12.75;;
49153;SDS011;49455;52.252;9.124;2023-04-23T02:21:47;26.45;;;11.93;;
49153;SDS011;49455;52.252;9.124;2023-04-23T02:26:48;28.80;;;12.48;;
49153;SDS011;49455;52.252;9.124;2023-04-23T02:31:49;35.67;;;15.68;;
49153;SDS011;49455;52.252;9.124;2023-04-23T02:36:49;31.17;;;13.40;;
49153;SDS011;49455;52.252;9.124;2023-04-23T02:41:50;35.03;;;14.52;;
49153;SDS011;49455;52.252;9.124;2023-04-23T02:46:50;33.13;;;14.93;;
49153;SDS011;49455;52.252;9.124;2023-04-23T02:51:51;36.23;;;15.87;;
49153;SDS011;49455;52.252;9.124;2023-04-23T02:56:52;33.50;;;14.60;;
49153;SDS011;49455;52.252;9.124;2023-04-23T03:01:52;38.45;;;15.23;;
49153;SDS011;49455;52.252;9.124;2023-04-23T03:06:52;35.97;;;14.98;;
49153;SDS011;49455;52.252;9.124;2023-04-23T03:11:53;36.60;;;15.65;;
49153;SDS011;49455;52.252;9.124;2023-04-23T03:16:53;38.80;;;16.02;;
49153;SDS011;49455;52.252;9.124;2023-04-23T03:21:54;42.15;;;17.08;;
49153;SDS011;49455;52.252;9.124;2023-04-23T03:26:54;37.60;;;15.60;;
49153;SDS011;49455;52.252;9.124;2023-04-23T03:31:55;39.92;;;16.05;;
49153;SDS011;49455;52.252;9.124;2023-04-23T03:36:55;39.75;;;15.70;;
49153;SDS011;49455;52.252;9.124;2023-04-23T03:41:56;37.30;;;14.65;;
49153;SDS011;49455;52.252;9.124;2023-04-23T03:47:00;36.72;;;14.77;;
49153;SDS011;49455;52.252;9.124;2023-04-23T03:52:00;43.00;;;17.40;;
49153;SDS011;49455;52.252;9.124;2023-04-23T03:57:03;43.28;;;16.50;;
49153;SDS011;49455;52.252;9.124;2023-04-23T04:02:08;40.65;;;15.85;;
49153;SDS011;49455;52.252;9.124;2023-04-23T04:07:09;40.97;;;16.42;;
49153;SDS011;49455;52.252;9.124;2023-04-23T04:12:09;37.67;;;15.93;;
49153;SDS011;49455;52.252;9.124;2023-04-23T04:17:10;46.42;;;18.73;;
49153;SDS011;49455;52.252;9.124;2023-04-23T04:22:10;38.05;;;15.68;;
49153;SDS011;49455;52.252;9.124;2023-04-23T04:27:11;43.25;;;16.75;;
49153;SDS011;49455;52.252;9.124;2023-04-23T04:32:11;43.70;;;17.10;;
49153;SDS011;49455;52.252;9.124;2023-04-23T04:37:11;42.30;;;16.63;;
49153;SDS011;49455;52.252;9.124;2023-04-23T04:42:12;39.03;;;15.27;;
49153;SDS011;49455;52.252;9.124;2023-04-23T04:47:12;43.58;;;15.13;;
49153;SDS011;49455;52.252;9.124;2023-04-23T04:52:13;39.05;;;16.40;;
49153;SDS011;49455;52.252;9.124;2023-04-23T04:57:13;43.17;;;16.73;;
49153;SDS011;49455;52.252;9.124;2023-04-23T05:02:13;44.50;;;17.88;;
49153;SDS011;49455;52.252;9.124;2023-04-23T05:07:14;45.55;;;17.45;;
49153;SDS011;49455;52.252;9.124;2023-04-23T05:12:14;43.83;;;17.33;;
49153;SDS011;49455;52.252;9.124;2023-04-23T05:17:15;45.10;;;18.30;;
49153;SDS011;49455;52.252;9.124;2023-04-23T05:22:15;45.97;;;18.27;;
49153;SDS011;49455;52.252;9.124;2023-04-23T05:27:16;56.65;;;17.35;;
49153;SDS011;49455;52.252;9.124;2023-04-23T05:32:16;47.80;;;19.95;;
49153;SDS011;49455;52.252;9.124;2023-04-23T05:37:17;49.60;;;20.42;;
49153;SDS011;49455;52.252;9.124;2023-04-23T05:42:17;48.45;;;19.80;;
49153;SDS011;49455;52.252;9.124;2023-04-23T05:47:17;47.40;;;20.17;;
49153;SDS011;49455;52.252;9.124;2023-04-23T05:52:18;47.55;;;19.52;;
49153;SDS011;49455;52.252;9.124;2023-04-23T05:57:18;43.83;;;15.82;;
49153;SDS011;49455;52.252;9.124;2023-04-23T06:02:19;51.47;;;20.48;;
49153;SDS011;49455;52.252;9.124;2023-04-23T06:07:19;53.78;;;20.50;;
49153;SDS011;49455;52.252;9.124;2023-04-23T06:12:19;53.10;;;20.77;;
49153;SDS011;49455;52.252;9.124;2023-04-23T06:17:20;48.90;;;20.70;;
49153;SDS011;49455;52.252;9.124;2023-04-23T06:22:20;53.22;;;20.75;;
49153;SDS011;49455;52.252;9.124;2023-04-23T06:27:21;37.13;;;15.27;;
49153;SDS011;49455;52.252;9.124;2023-04-23T06:32:24;35.10;;;15.77;;
49153;SDS011;49455;52.252;9.124;2023-04-23T06:37:24;52.85;;;19.70;;
49153;SDS011;49455;52.252;9.124;2023-04-23T06:42:25;46.67;;;19.35;;
49153;SDS011;49455;52.252;9.124;2023-04-23T06:47:49;57.72;;;18.08;;
49153;SDS011;49455;52.252;9.124;2023-04-23T06:52:50;42.10;;;17.08;;
49153;SDS011;49455;52.252;9.124;2023-04-23T06:57:51;43.85;;;17.95;;
49153;SDS011;49455;52.252;9.124;2023-04-23T07:02:51;52.07;;;18.13;;
49153;SDS011;49455;52.252;9.124;2023-04-23T07:07:52;42.33;;;17.92;;
49153;SDS011;49455;52.252;9.124;2023-04-23T07:12:52;41.10;;;17.65;;
49153;SDS011;49455;52.252;9.124;2023-04-23T07:17:53;44.83;;;18.83;;
49153;SDS011;49455;52.252;9.124;2023-04-23T07:22:53;36.90;;;14.38;;
49153;SDS011;49455;52.252;9.124;2023-04-23T07:27:53;42.42;;;16.98;;
49153;SDS011;49455;52.252;9.124;2023-04-23T07:32:54;25.67;;;10.60;;
49153;SDS011;49455;52.252;9.124;2023-04-23T07:37:54;40.70;;;16.33;;
49153;SDS011;49455;52.252;9.124;2023-04-23T07:42:55;28.75;;;9.98;;
49153;SDS011;49455;52.252;9.124;2023-04-23T07:47:56;34.63;;;15.23;;
49153;SDS011;49455;52.252;9.124;2023-04-23T07:52:56;40.33;;;16.52;;
49153;SDS011;49455;52.252;9.124;2023-04-23T07:57:57;40.22;;;15.45;;
49153;SDS011;49455;52.252;9.124;2023-04-23T08:02:57;34.08;;;15.90;;
49153;SDS011;49455;52.252;9.124;2023-04-23T08:07:58;35.60;;;12.13;;
49153;SDS011;49455;52.252;9.124;2023-04-23T08:12:58;25.17;;;10.00;;
49153;SDS011;49455;52.252;9.124;2023-04-23T08:17:59;31.40;;;11.38;;
49153;SDS011;49455;52.252;9.124;2023-04-23T08:22:59;23.77;;;9.55;;
49153;SDS011;49455;52.252;9.124;2023-04-23T08:28:00;24.75;;;9.10;;
49153;SDS011;49455;52.252;9.124;2023-04-23T08:33:00;20.88;;;8.25;;
49153;SDS011;49455;52.252;9.124;2023-04-23T08:38:01;7.80;;;2.30;;
49153;SDS011;49455;52.252;9.124;2023-04-23T08:43:02;4.90;;;2.95;;
49153;SDS011;49455;52.252;9.124;2023-04-23T08:48:14;7.97;;;1.92;;
49153;SDS011;49455;52.252;9.124;2023-04-23T08:53:17;7.43;;;3.63;;
49153;SDS011;49455;52.252;9.124;2023-04-23T08:58:18;37.33;;;15.68;;
49153;SDS011;49455;52.252;9.124;2023-04-23T09:03:20;27.23;;;11.50;;
49153;SDS011;49455;52.252;9.124;2023-04-23T09:08:22;25.02;;;11.25;;
49153;SDS011;49455;52.252;9.124;2023-04-23T09:13:22;25.15;;;16.83;;
49153;SDS011;49455;52.252;9.124;2023-04-23T09:18:23;20.92;;;15.48;;
49153;SDS011;49455;52.252;9.124;2023-04-23T09:23:23;28.47;;;17.90;;
49153;SDS011;49455;52.252;9.124;2023-04-23T09:28:33;21.47;;;15.43;;
49153;SDS011;49455;52.252;9.124;2023-04-23T09:33:34;23.02;;;16.08;;
49153;SDS011;49455;52.252;9.124;2023-04-23T09:38:34;18.83;;;14.23;;
49153;SDS011;49455;52.252;9.124;2023-04-23T09:43:35;24.73;;;15.00;;
49153;SDS011;49455;52.252;9.124;2023-04-23T09:48:42;17.23;;;11.83;;
49153;SDS011;49455;52.252;9.124;2023-04-23T09:53:42;12.15;;;9.90;;
49153;SDS011;49455;52.252;9.124;2023-04-23T09:58:44;13.87;;;10.43;;
49153;SDS011;49455;52.252;9.124;2023-04-23T10:03:44;14.80;;;10.57;;
49153;SDS011;49455;52.252;9.124;2023-04-23T10:08:45;12.48;;;10.35;;
49153;SDS011;49455;52.252;9.124;2023-04-23T10:13:45;8.35;;;6.70;;
49153;SDS011;49455;52.252;9.124;2023-04-23T10:18:48;10.98;;;8.15;;
49153;SDS011;49455;52.252;9.124;2023-04-23T10:23:51;10.68;;;8.43;;
49153;SDS011;49455;52.252;9.124;2023-04-23T10:28:53;11.23;;;8.60;;
49153;SDS011;49455;52.252;9.124;2023-04-23T10:33:55;8.25;;;5.65;;
49153;SDS011;49455;52.252;9.124;2023-04-23T10:38:56;7.60;;;5.70;;
49153;SDS011;49455;52.252;9.124;2023-04-23T10:43:56;7.30;;;5.33;;
49153;SDS011;49455;52.252;9.124;2023-04-23T10:54:14;5.10;;;2.78;;
49153;SDS011;49455;52.252;9.124;2023-04-23T10:59:18;5.03;;;3.33;;
49153;SDS011;49455;52.252;9.124;2023-04-23T11:04:23;4.72;;;3.40;;
49153;SDS011;49455;52.252;9.124;2023-04-23T11:14:47;8.40;;;4.40;;
49153;SDS011;49455;52.252;9.124;2023-04-23T11:25:12;6.55;;;4.18;;
49153;SDS011;49455;52.252;9.124;2023-04-23T11:30:15;7.53;;;4.75;;
49153;SDS011;49455;52.252;9.124;2023-04-23T11:35:19;5.38;;;3.80;;
49153;SDS011;49455;52.252;9.124;2023-04-23T11:40:21;5.60;;;4.00;;
49153;SDS011;49455;52.252;9.124;2023-04-23T11:50:23;5.30;;;3.10;;
49153;SDS011;49455;52.252;9.124;2023-04-23T11:55:25;7.07;;;4.15;;
49153;SDS011;49455;52.252;9.124;2023-04-23T12:00:27;6.15;;;3.55;;
49153;SDS011;49455;52.252;9.124;2023-04-23T12:05:35;8.80;;;3.33;;
49153;SDS011;49455;52.252;9.124;2023-04-23T12:10:43;6.28;;;3.28;;
49153;SDS011;49455;52.252;9.124;2023-04-23T12:15:48;3.03;;;2.72;;
49153;SDS011;49455;52.252;9.124;2023-04-23T12:20:50;5.60;;;3.47;;
49153;SDS011;49455;52.252;9.124;2023-04-23T12:25:52;6.07;;;3.10;;
49153;SDS011;49455;52.252;9.124;2023-04-23T12:30:58;3.08;;;2.55;;
49153;SDS011;49455;52.252;9.124;2023-04-23T12:36:00;3.05;;;2.30;;
49153;SDS011;49455;52.252;9.124;2023-04-23T12:41:00;1.57;;;0.90;;
49153;SDS011;49455;52.252;9.124;2023-04-23T12:46:01;2.20;;;1.07;;
49153;SDS011;49455;52.252;9.124;2023-04-23T12:51:01;0.70;;;0.53;;
49153;SDS011;49455;52.252;9.124;2023-04-23T12:56:02;1.00;;;0.60;;
49153;SDS011;49455;52.252;9.124;2023-04-23T13:01:02;2.00;;;0.70;;
49153;SDS011;49455;52.252;9.124;2023-04-23T13:06:05;0.70;;;0.70;;
49153;SDS011;49455;52.252;9.124;2023-04-23T13:11:05;0.95;;;0.65;;
49153;SDS011;49455;52.252;9.124;2023-04-23T13:16:06;0.47;;;0.47;;
49153;SDS011;49455;52.252;9.124;2023-04-23T13:21:08;0.40;;;0.40;;
49153;SDS011;49455;52.252;9.124;2023-04-23T13:26:09;0.40;;;0.40;;
49153;SDS011;49455;52.252;9.124;2023-04-23T13:31:09;0.40;;;0.40;;
49153;SDS011;49455;52.252;9.124;2023-04-23T13:36:09;0.63;;;0.50;;
49153;SDS011;49455;52.252;9.124;2023-04-23T13:41:10;1.33;;;0.63;;
49153;SDS011;49455;52.252;9.124;2023-04-23T13:46:10;2.80;;;1.30;;
49153;SDS011;49455;52.252;9.124;2023-04-23T13:51:11;1.13;;;1.03;;
49153;SDS011;49455;52.252;9.124;2023-04-23T13:56:11;2.13;;;1.40;;
49153;SDS011;49455;52.252;9.124;2023-04-23T14:01:11;4.27;;;1.77;;
49153;SDS011;49455;52.252;9.124;2023-04-23T14:06:12;1.97;;;1.30;;
49153;SDS011;49455;52.252;9.124;2023-04-23T14:11:12;1.57;;;1.10;;
49153;SDS011;49455;52.252;9.124;2023-04-23T14:16:13;4.20;;;1.23;;
49153;SDS011;49455;52.252;9.124;2023-04-23T14:21:13;2.40;;;1.53;;
49153;SDS011;49455;52.252;9.124;2023-04-23T14:26:47;2.63;;;1.50;;
49153;SDS011;49455;52.252;9.124;2023-04-23T14:31:40;2.30;;;1.40;;
49153;SDS011;49455;52.252;9.124;2023-04-23T14:36:41;1.90;;;1.50;;
49153;SDS011;49455;52.252;9.124;2023-04-23T14:41:41;1.40;;;1.30;;
49153;SDS011;49455;52.252;9.124;2023-04-23T14:46:42;2.37;;;1.37;;
49153;SDS011;49455;52.252;9.124;2023-04-23T14:51:42;1.67;;;1.30;;
49153;SDS011;49455;52.252;9.124;2023-04-23T14:56:43;5.57;;;1.27;;
49153;SDS011;49455;52.252;9.124;2023-04-23T15:01:44;2.13;;;1.20;;
49153;SDS011;49455;52.252;9.124;2023-04-23T15:06:44;2.13;;;1.60;;
49153;SDS011;49455;52.252;9.124;2023-04-23T15:11:44;1.33;;;1.17;;
49153;SDS011;49455;52.252;9.124;2023-04-23T15:16:45;1.77;;;1.07;;
49153;SDS011;49455;52.252;9.124;2023-04-23T15:21:46;2.60;;;1.50;;
49153;SDS011;49455;52.252;9.124;2023-04-23T15:26:47;1.48;;;1.30;;
49153;SDS011;49455;52.252;9.124;2023-04-23T15:31:47;2.87;;;1.50;;
49153;SDS011;49455;52.252;9.124;2023-04-23T15:36:47;3.47;;;1.67;;
49153;SDS011;49455;52.252;9.124;2023-04-23T15:41:49;1.47;;;1.10;;
49153;SDS011;49455;52.252;9.124;2023-04-23T15:46:50;4.22;;;1.40;;
49153;SDS011;49455;52.252;9.124;2023-04-23T15:51:51;6.77;;;1.50;;
49153;SDS011;49455;52.252;9.124;2023-04-23T15:56:51;2.27;;;1.50;;
49153;SDS011;49455;52.252;9.124;2023-04-23T16:01:52;1.30;;;1.20;;
49153;SDS011;49455;52.252;9.124;2023-04-23T16:06:52;1.73;;;1.40;;
49153;SDS011;49455;52.252;9.124;2023-04-23T16:11:52;2.50;;;1.40;;
49153;SDS011;49455;52.252;9.124;2023-04-23T16:16:53;5.43;;;1.73;;
49153;SDS011;49455;52.252;9.124;2023-04-23T16:21:53;1.70;;;1.50;;
49153;SDS011;49455;52.252;9.124;2023-04-23T16:26:53;2.57;;;1.37;;
49153;SDS011;49455;52.252;9.124;2023-04-23T16:31:54;3.17;;;1.60;;
49153;SDS011;49455;52.252;9.124;2023-04-23T16:36:54;2.80;;;1.50;;
49153;SDS011;49455;52.252;9.124;2023-04-23T16:41:55;5.83;;;1.53;;
49153;SDS011;49455;52.252;9.124;2023-04-23T16:46:55;1.83;;;1.27;;
49153;SDS011;49455;52.252;9.124;2023-04-23T16:51:56;4.97;;;1.10;;
49153;SDS011;49455;52.252;9.124;2023-04-23T16:56:56;3.10;;;0.93;;
49153;SDS011;49455;52.252;9.124;2023-04-23T17:01:56;2.80;;;0.90;;
49153;SDS011;49455;52.252;9.124;2023-04-23T17:06:57;0.80;;;0.80;;
49153;SDS011;49455;52.252;9.124;2023-04-23T17:11:57;1.20;;;0.87;;
49153;SDS011;49455;52.252;9.124;2023-04-23T17:16:58;3.90;;;0.80;;
49153;SDS011;49455;52.252;9.124;2023-04-23T17:21:58;1.67;;;1.10;;
49153;SDS011;49455;52.252;9.124;2023-04-23T17:26:59;2.67;;;1.37;;
49153;SDS011;49455;52.252;9.124;2023-04-23T17:31:59;2.23;;;1.17;;
49153;SDS011;49455;52.252;9.124;2023-04-23T17:37:00;2.87;;;1.17;;
49153;SDS011;49455;52.252;9.124;2023-04-23T17:42:00;1.93;;;0.90;;
49153;SDS011;49455;52.252;9.124;2023-04-23T17:47:00;3.73;;;1.43;;
49153;SDS011;49455;52.252;9.124;2023-04-23T17:52:01;1.30;;;1.20;;
49153;SDS011;49455;52.252;9.124;2023-04-23T17:57:01;1.48;;;1.30;;
49153;SDS011;49455;52.252;9.124;2023-04-23T18:02:05;2.30;;;1.30;;
49153;SDS011;49455;52.252;9.124;2023-04-23T18:07:06;3.03;;;1.25;;
49153;SDS011;49455;52.252;9.124;2023-04-23T18:12:06;1.50;;;1.27;;
49153;SDS011;49455;52.252;9.124;2023-04-23T18:17:06;1.50;;;1.10;;
49153;SDS011;49455;52.252;9.124;2023-04-23T18:22:07;1.40;;;1.20;;
49153;SDS011;49455;52.252;9.124;2023-04-23T18:27:08;1.30;;;1.10;;
49153;SDS011;49455;52.252;9.124;2023-04-23T18:32:08;1.33;;;1.20;;
49153;SDS011;49455;52.252;9.124;2023-04-23T18:37:09;2.10;;;1.50;;
49153;SDS011;49455;52.252;9.124;2023-04-23T18:42:23;2.67;;;1.70;;
49153;SDS011;49455;52.252;9.124;2023-04-23T18:47:24;3.93;;;1.80;;
49153;SDS011;49455;52.252;9.124;2023-04-23T18:52:25;1.73;;;1.58;;
49153;SDS011;49455;52.252;9.124;2023-04-23T18:57:25;3.58;;;1.85;;
49153;SDS011;49455;52.252;9.124;2023-04-23T19:02:26;4.47;;;1.63;;
49153;SDS011;49455;52.252;9.124;2023-04-23T19:07:26;2.97;;;1.40;;
49153;SDS011;49455;52.252;9.124;2023-04-23T19:12:27;2.35;;;1.60;;
49153;SDS011;49455;52.252;9.124;2023-04-23T19:17:27;1.97;;;1.17;;
49153;SDS011;49455;52.252;9.124;2023-04-23T19:22:27;1.63;;;1.20;;
49153;SDS011;49455;52.252;9.124;2023-04-23T19:27:28;1.70;;;1.08;;
49153;SDS011;49455;52.252;9.124;2023-04-23T19:32:29;1.70;;;1.57;;
49153;SDS011;49455;52.252;9.124;2023-04-23T19:37:30;3.30;;;1.55;;
49153;SDS011;49455;52.252;9.124;2023-04-23T19:42:30;2.72;;;1.60;;
49153;SDS011;49455;52.252;9.124;2023-04-23T19:47:30;1.73;;;1.60;;
49153;SDS011;49455;52.252;9.124;2023-04-23T19:52:31;2.25;;;2.00;;
49153;SDS011;49455;52.252;9.124;2023-04-23T19:57:31;2.60;;;1.77;;
49153;SDS011;49455;52.252;9.124;2023-04-23T20:02:33;5.85;;;2.40;;
49153;SDS011;49455;52.252;9.124;2023-04-23T20:07:33;1.83;;;1.60;;
49153;SDS011;49455;52.252;9.124;2023-04-23T20:12:34;3.07;;;1.63;;
49153;SDS011;49455;52.252;9.124;2023-04-23T20:17:35;3.80;;;1.58;;
49153;SDS011;49455;52.252;9.124;2023-04-23T20:22:36;4.55;;;1.52;;
49153;SDS011;49455;52.252;9.124;2023-04-23T20:27:37;1.23;;;1.10;;
49153;SDS011;49455;52.252;9.124;2023-04-23T20:32:37;1.30;;;0.97;;
49153;SDS011;49455;52.252;9.124;2023-04-23T20:37:38;1.10;;;1.00;;
49153;SDS011;49455;52.252;9.124;2023-04-23T20:42:38;3.45;;;1.25;;
49153;SDS011;49455;52.252;9.124;2023-04-23T20:47:38;1.38;;;1.00;;
49153;SDS011;49455;52.252;9.124;2023-04-23T20:52:39;1.90;;;1.20;;
49153;SDS011;49455;52.252;9.124;2023-04-23T20:57:39;1.20;;;1.10;;
49153;SDS011;49455;52.252;9.124;2023-04-23T21:02:40;2.05;;;0.90;;
49153;SDS011;49455;52.252;9.124;2023-04-23T21:07:40;0.82;;;0.80;;
49153;SDS011;49455;52.252;9.124;2023-04-23T21:12:41;1.20;;;0.98;;
49153;SDS011;49455;52.252;9.124;2023-04-23T21:17:41;3.40;;;1.55;;
49153;SDS011;49455;52.252;9.124;2023-04-23T21:22:42;1.30;;;1.20;;
49153;SDS011;49455;52.252;9.124;2023-04-23T21:27:42;1.35;;;0.82;;
49153;SDS011;49455;52.252;9.124;2023-04-23T21:32:43;1.33;;;0.93;;
49153;SDS011;49455;52.252;9.124;2023-04-23T21:37:43;1.02;;;0.88;;
49153;SDS011;49455;52.252;9.124;2023-04-23T21:42:44;1.38;;;0.77;;
49153;SDS011;49455;52.252;9.124;2023-04-23T21:47:44;2.70;;;1.10;;
49153;SDS011;49455;52.252;9.124;2023-04-23T21:52:45;3.42;;;0.80;;
49153;SDS011;49455;52.252;9.124;2023-04-23T21:57:45;1.13;;;0.90;;
49153;SDS011;49455;52.252;9.124;2023-04-23T22:02:46;1.65;;;0.95;;
49153;SDS011;49455;52.252;9.124;2023-04-23T22:07:48;0.68;;;0.60;;
49153;SDS011;49455;52.252;9.124;2023-04-23T22:12:49;0.98;;;0.60;;
49153;SDS011;49455;52.252;9.124;2023-04-23T22:17:50;0.60;;;0.60;;
49153;SDS011;49455;52.252;9.124;2023-04-23T22:22:50;1.00;;;0.60;;
49153;SDS011;49455;52.252;9.124;2023-04-23T22:27:51;0.68;;;0.68;;
49153;SDS011;49455;52.252;9.124;2023-04-23T22:32:51;2.92;;;0.60;;
49153;SDS011;49455;52.252;9.124;2023-04-23T22:37:51;1.23;;;0.73;;
49153;SDS011;49455;52.252;9.124;2023-04-23T22:42:52;0.90;;;0.60;;
49153;SDS011;49455;52.252;9.124;2023-04-23T22:47:52;1.80;;;0.82;;
49153;SDS011;49455;52.252;9.124;2023-04-23T22:52:53;0.85;;;0.65;;
49153;SDS011;49455;52.252;9.124;2023-04-23T22:57:53;0.77;;;0.68;;
49153;SDS011;49455;52.252;9.124;2023-04-23T23:02:53;0.70;;;0.70;;
49153;SDS011;49455;52.252;9.124;2023-04-23T23:07:54;2.33;;;0.60;;
49153;SDS011;49455;52.252;9.124;2023-04-23T23:12:54;0.40;;;0.40;;
49153;SDS011;49455;52.252;9.124;2023-04-23T23:17:55;2.25;;;0.73;;
49153;SDS011;49455;52.252;9.124;2023-04-23T23:22:55;4.43;;;0.80;;
49153;SDS011;49455;52.252;9.124;2023-04-23T23:27:55;0.70;;;0.60;;
49153;SDS011;49455;52.252;9.124;2023-04-23T23:32:56;0.88;;;0.60;;
49153;SDS011;49455;52.252;9.124;2023-04-23T23:37:56;0.65;;;0.50;;
49153;SDS011;49455;52.252;9.124;2023-04-23T23:42:57;0.90;;;0.80;;
49153;SDS011;49455;52.252;9.124;2023-04-23T23:47:57;1.15;;;0.80;;
49153;SDS011;49455;52.252;9.124;2023-04-23T23:52:58;1.23;;;0.98;;
49153;SDS011;49455;52.252;9.124;2023-04-23T23:57:58;1.35;;;0.80;;
